sensor_id;sensor_type;location;lat;lon;timestamp;P1;durP1;ratioP1;P2;durP2;ratioP2
14603;SDS011;7388;51.078;13.740;2023-05-20T00:00:33;17.30;;;14.47;;
14603;SDS011;7388;51.078;13.740;2023-05-20T00:02:59;16.00;;;14.30;;
14603;SDS011;7388;51.078;13.740;2023-05-20T00:05:25;16.77;;;14.83;;
14603;SDS011;7388;51.078;13.740;2023-05-20T00:07:51;18.23;;;15.83;;
14603;SDS011;7388;51.078;13.740;2023-05-20T00:10:17;16.70;;;14.40;;
14603;SDS011;7388;51.078;13.740;2023-05-20T00:12:42;19.13;;;15.97;;
14603;SDS011;7388;51.078;13.740;2023-05-20T00:15:08;18.57;;;15.80;;
14603;SDS011;7388;51.078;13.740;2023-05-20T00:17:36;22.65;;;15.90;;
14603;SDS011;7388;51.078;13.740;2023-05-20T00:20:02;20.73;;;16.85;;
14603;SDS011;7388;51.078;13.740;2023-05-20T00:22:29;15.95;;;13.95;;
14603;SDS011;7388;51.078;13.740;2023-05-20T00:24:55;20.23;;;17.53;;
14603;SDS011;7388;51.078;13.740;2023-05-20T00:27:21;19.30;;;16.50;;
14603;SDS011;7388;51.078;13.740;2023-05-20T00:29:46;18.40;;;16.23;;
14603;SDS011;7388;51.078;13.740;2023-05-20T00:32:12;17.27;;;15.47;;
14603;SDS011;7388;51.078;13.740;2023-05-20T00:34:38;18.37;;;16.43;;
14603;SDS011;7388;51.078;13.740;2023-05-20T00:37:05;19.10;;;15.80;;
14603;SDS011;7388;51.078;13.740;2023-05-20T00:39:31;18.50;;;15.38;;
14603;SDS011;7388;51.078;13.740;2023-05-20T00:41:56;18.63;;;16.57;;
14603;SDS011;7388;51.078;13.740;2023-05-20T00:44:25;17.85;;;15.57;;
14603;SDS011;7388;51.078;13.740;2023-05-20T00:46:51;17.73;;;15.48;;
14603;SDS011;7388;51.078;13.740;2023-05-20T00:49:18;19.58;;;15.18;;
14603;SDS011;7388;51.078;13.740;2023-05-20T00:51:44;18.10;;;15.43;;
14603;SDS011;7388;51.078;13.740;2023-05-20T00:54:10;18.90;;;14.98;;
14603;SDS011;7388;51.078;13.740;2023-05-20T00:56:36;20.90;;;17.85;;
14603;SDS011;7388;51.078;13.740;2023-05-20T00:59:02;21.80;;;15.10;;
14603;SDS011;7388;51.078;13.740;2023-05-20T01:01:29;21.17;;;16.77;;
14603;SDS011;7388;51.078;13.740;2023-05-20T01:03:55;20.27;;;18.17;;
14603;SDS011;7388;51.078;13.740;2023-05-20T01:06:20;20.40;;;15.73;;
14603;SDS011;7388;51.078;13.740;2023-05-20T01:08:46;18.83;;;16.47;;
14603;SDS011;7388;51.078;13.740;2023-05-20T01:11:17;19.23;;;16.63;;
14603;SDS011;7388;51.078;13.740;2023-05-20T01:13:59;18.50;;;16.50;;
14603;SDS011;7388;51.078;13.740;2023-05-20T01:16:27;19.13;;;16.33;;
14603;SDS011;7388;51.078;13.740;2023-05-20T01:18:55;20.95;;;16.83;;
14603;SDS011;7388;51.078;13.740;2023-05-20T01:21:23;19.88;;;16.67;;
14603;SDS011;7388;51.078;13.740;2023-05-20T01:23:51;19.02;;;16.02;;
14603;SDS011;7388;51.078;13.740;2023-05-20T01:26:17;17.93;;;15.70;;
14603;SDS011;7388;51.078;13.740;2023-05-20T01:28:43;19.08;;;17.00;;
14603;SDS011;7388;51.078;13.740;2023-05-20T01:31:10;17.10;;;14.77;;
14603;SDS011;7388;51.078;13.740;2023-05-20T01:33:42;20.20;;;15.55;;
14603;SDS011;7388;51.078;13.740;2023-05-20T01:36:09;19.27;;;17.15;;
14603;SDS011;7388;51.078;13.740;2023-05-20T01:38:36;19.65;;;17.52;;
14603;SDS011;7388;51.078;13.740;2023-05-20T01:41:04;18.67;;;16.55;;
14603;SDS011;7388;51.078;13.740;2023-05-20T01:43:31;17.17;;;15.40;;
14603;SDS011;7388;51.078;13.740;2023-05-20T01:45:57;35.43;;;17.13;;
14603;SDS011;7388;51.078;13.740;2023-05-20T01:48:22;19.70;;;15.80;;
14603;SDS011;7388;51.078;13.740;2023-05-20T01:50:48;20.73;;;17.47;;
14603;SDS011;7388;51.078;13.740;2023-05-20T01:53:14;20.23;;;16.60;;
14603;SDS011;7388;51.078;13.740;2023-05-20T01:55:40;21.87;;;17.70;;
14603;SDS011;7388;51.078;13.740;2023-05-20T01:58:06;21.13;;;16.40;;
14603;SDS011;7388;51.078;13.740;2023-05-20T02:00:32;20.03;;;15.53;;
14603;SDS011;7388;51.078;13.740;2023-05-20T02:02:58;20.70;;;16.42;;
14603;SDS011;7388;51.078;13.740;2023-05-20T02:05:24;21.80;;;18.23;;
14603;SDS011;7388;51.078;13.740;2023-05-20T02:07:50;24.50;;;17.80;;
14603;SDS011;7388;51.078;13.740;2023-05-20T02:10:16;19.20;;;16.23;;
14603;SDS011;7388;51.078;13.740;2023-05-20T02:12:41;15.63;;;13.97;;
14603;SDS011;7388;51.078;13.740;2023-05-20T02:15:07;22.87;;;17.47;;
14603;SDS011;7388;51.078;13.740;2023-05-20T02:17:33;17.27;;;14.98;;
14603;SDS011;7388;51.078;13.740;2023-05-20T02:19:59;19.83;;;15.55;;
14603;SDS011;7388;51.078;13.740;2023-05-20T02:22:25;20.13;;;15.90;;
14603;SDS011;7388;51.078;13.740;2023-05-20T02:24:51;20.67;;;17.07;;
14603;SDS011;7388;51.078;13.740;2023-05-20T02:27:17;19.03;;;17.03;;
14603;SDS011;7388;51.078;13.740;2023-05-20T02:29:42;17.93;;;15.60;;
14603;SDS011;7388;51.078;13.740;2023-05-20T02:32:08;21.10;;;15.90;;
14603;SDS011;7388;51.078;13.740;2023-05-20T02:34:35;18.98;;;16.23;;
14603;SDS011;7388;51.078;13.740;2023-05-20T02:37:00;19.03;;;16.93;;
14603;SDS011;7388;51.078;13.740;2023-05-20T02:39:26;18.47;;;16.50;;
14603;SDS011;7388;51.078;13.740;2023-05-20T02:41:55;19.25;;;16.40;;
14603;SDS011;7388;51.078;13.740;2023-05-20T02:44:21;18.40;;;16.00;;
14603;SDS011;7388;51.078;13.740;2023-05-20T02:46:46;16.47;;;14.60;;
14603;SDS011;7388;51.078;13.740;2023-05-20T02:49:12;21.07;;;16.07;;
14603;SDS011;7388;51.078;13.740;2023-05-20T02:51:38;18.20;;;15.43;;
14603;SDS011;7388;51.078;13.740;2023-05-20T02:54:05;19.25;;;15.60;;
14603;SDS011;7388;51.078;13.740;2023-05-20T02:56:31;18.40;;;16.13;;
14603;SDS011;7388;51.078;13.740;2023-05-20T02:58:57;19.53;;;16.07;;
14603;SDS011;7388;51.078;13.740;2023-05-20T03:01:22;18.30;;;15.97;;
14603;SDS011;7388;51.078;13.740;2023-05-20T03:03:48;19.10;;;15.90;;
14603;SDS011;7388;51.078;13.740;2023-05-20T03:06:14;18.10;;;16.10;;
14603;SDS011;7388;51.078;13.740;2023-05-20T03:08:40;17.00;;;15.23;;
14603;SDS011;7388;51.078;13.740;2023-05-20T03:11:06;19.65;;;15.60;;
14603;SDS011;7388;51.078;13.740;2023-05-20T03:13:32;17.70;;;14.63;;
14603;SDS011;7388;51.078;13.740;2023-05-20T03:15:59;15.90;;;14.30;;
14603;SDS011;7388;51.078;13.740;2023-05-20T03:18:25;17.23;;;15.48;;
14603;SDS011;7388;51.078;13.740;2023-05-20T03:20:51;16.70;;;14.30;;
14603;SDS011;7388;51.078;13.740;2023-05-20T03:23:17;17.90;;;15.73;;
14603;SDS011;7388;51.078;13.740;2023-05-20T03:25:43;19.90;;;16.60;;
14603;SDS011;7388;51.078;13.740;2023-05-20T03:28:10;23.08;;;15.88;;
14603;SDS011;7388;51.078;13.740;2023-05-20T03:30:35;21.23;;;16.50;;
14603;SDS011;7388;51.078;13.740;2023-05-20T03:33:01;21.23;;;14.60;;
14603;SDS011;7388;51.078;13.740;2023-05-20T03:35:27;21.40;;;15.60;;
14603;SDS011;7388;51.078;13.740;2023-05-20T03:37:53;20.88;;;17.65;;
14603;SDS011;7388;51.078;13.740;2023-05-20T03:40:19;22.17;;;16.63;;
14603;SDS011;7388;51.078;13.740;2023-05-20T03:42:45;17.30;;;14.57;;
14603;SDS011;7388;51.078;13.740;2023-05-20T03:45:11;17.17;;;14.10;;
14603;SDS011;7388;51.078;13.740;2023-05-20T03:47:37;20.63;;;15.57;;
14603;SDS011;7388;51.078;13.740;2023-05-20T03:50:03;16.43;;;14.63;;
14603;SDS011;7388;51.078;13.740;2023-05-20T03:52:30;18.80;;;15.40;;
14603;SDS011;7388;51.078;13.740;2023-05-20T03:54:56;19.60;;;15.83;;
14603;SDS011;7388;51.078;13.740;2023-05-20T03:57:21;22.37;;;16.73;;
14603;SDS011;7388;51.078;13.740;2023-05-20T03:59:47;20.07;;;16.83;;
14603;SDS011;7388;51.078;13.740;2023-05-20T04:02:13;19.87;;;16.90;;
14603;SDS011;7388;51.078;13.740;2023-05-20T04:04:39;20.60;;;15.98;;
14603;SDS011;7388;51.078;13.740;2023-05-20T04:07:08;19.50;;;17.40;;
14603;SDS011;7388;51.078;13.740;2023-05-20T04:09:34;20.00;;;16.52;;
14603;SDS011;7388;51.078;13.740;2023-05-20T04:12:01;18.48;;;15.73;;
14603;SDS011;7388;51.078;13.740;2023-05-20T04:14:27;19.80;;;17.70;;
14603;SDS011;7388;51.078;13.740;2023-05-20T04:16:53;19.67;;;14.57;;
14603;SDS011;7388;51.078;13.740;2023-05-20T04:19:18;20.00;;;18.03;;
14603;SDS011;7388;51.078;13.740;2023-05-20T04:21:44;18.13;;;16.23;;
14603;SDS011;7388;51.078;13.740;2023-05-20T04:24:10;19.50;;;15.43;;
14603;SDS011;7388;51.078;13.740;2023-05-20T04:26:36;21.02;;;17.55;;
14603;SDS011;7388;51.078;13.740;2023-05-20T04:29:03;19.52;;;17.40;;
14603;SDS011;7388;51.078;13.740;2023-05-20T04:31:29;21.03;;;18.63;;
14603;SDS011;7388;51.078;13.740;2023-05-20T04:33:56;18.10;;;15.25;;
14603;SDS011;7388;51.078;13.740;2023-05-20T04:36:21;17.23;;;15.50;;
14603;SDS011;7388;51.078;13.740;2023-05-20T04:38:52;20.20;;;16.90;;
14603;SDS011;7388;51.078;13.740;2023-05-20T04:41:21;21.55;;;16.80;;
14603;SDS011;7388;51.078;13.740;2023-05-20T04:43:48;17.75;;;15.80;;
14603;SDS011;7388;51.078;13.740;2023-05-20T04:46:14;21.63;;;17.92;;
14603;SDS011;7388;51.078;13.740;2023-05-20T04:48:40;20.27;;;16.38;;
14603;SDS011;7388;51.078;13.740;2023-05-20T04:51:07;22.70;;;15.18;;
14603;SDS011;7388;51.078;13.740;2023-05-20T04:53:34;21.58;;;17.45;;
14603;SDS011;7388;51.078;13.740;2023-05-20T04:56:00;23.55;;;19.67;;
14603;SDS011;7388;51.078;13.740;2023-05-20T04:58:25;19.33;;;17.33;;
14603;SDS011;7388;51.078;13.740;2023-05-20T05:00:54;19.20;;;16.42;;
14603;SDS011;7388;51.078;13.740;2023-05-20T05:03:20;20.73;;;17.80;;
14603;SDS011;7388;51.078;13.740;2023-05-20T05:05:46;20.10;;;16.65;;
14603;SDS011;7388;51.078;13.740;2023-05-20T05:08:12;22.43;;;17.43;;
14603;SDS011;7388;51.078;13.740;2023-05-20T05:10:38;20.97;;;17.10;;
14603;SDS011;7388;51.078;13.740;2023-05-20T05:13:04;19.50;;;16.58;;
14603;SDS011;7388;51.078;13.740;2023-05-20T05:15:30;21.23;;;17.57;;
14603;SDS011;7388;51.078;13.740;2023-05-20T05:17:56;21.53;;;17.90;;
14603;SDS011;7388;51.078;13.740;2023-05-20T05:20:21;23.67;;;19.30;;
14603;SDS011;7388;51.078;13.740;2023-05-20T05:22:47;24.10;;;19.23;;
14603;SDS011;7388;51.078;13.740;2023-05-20T05:25:14;23.88;;;20.63;;
14603;SDS011;7388;51.078;13.740;2023-05-20T05:27:40;23.77;;;19.13;;
14603;SDS011;7388;51.078;13.740;2023-05-20T05:30:13;22.95;;;20.52;;
14603;SDS011;7388;51.078;13.740;2023-05-20T05:32:38;26.07;;;20.67;;
14603;SDS011;7388;51.078;13.740;2023-05-20T05:35:04;26.33;;;21.37;;
14603;SDS011;7388;51.078;13.740;2023-05-20T05:37:30;25.55;;;22.65;;
14603;SDS011;7388;51.078;13.740;2023-05-20T05:39:56;24.53;;;21.90;;
14603;SDS011;7388;51.078;13.740;2023-05-20T05:42:22;26.23;;;20.47;;
14603;SDS011;7388;51.078;13.740;2023-05-20T05:44:48;28.10;;;20.83;;
14603;SDS011;7388;51.078;13.740;2023-05-20T05:47:13;26.33;;;19.87;;
14603;SDS011;7388;51.078;13.740;2023-05-20T05:49:39;24.23;;;19.73;;
14603;SDS011;7388;51.078;13.740;2023-05-20T05:52:05;29.60;;;23.40;;
14603;SDS011;7388;51.078;13.740;2023-05-20T05:54:32;25.45;;;21.48;;
14603;SDS011;7388;51.078;13.740;2023-05-20T05:56:58;26.60;;;21.93;;
14603;SDS011;7388;51.078;13.740;2023-05-20T05:59:24;26.23;;;21.53;;
14603;SDS011;7388;51.078;13.740;2023-05-20T06:01:49;27.03;;;22.33;;
14603;SDS011;7388;51.078;13.740;2023-05-20T06:04:15;25.43;;;20.67;;
14603;SDS011;7388;51.078;13.740;2023-05-20T06:06:41;25.07;;;19.67;;
14603;SDS011;7388;51.078;13.740;2023-05-20T06:09:07;24.57;;;20.07;;
14603;SDS011;7388;51.078;13.740;2023-05-20T06:11:32;25.73;;;20.83;;
14603;SDS011;7388;51.078;13.740;2023-05-20T06:13:58;29.90;;;23.33;;
14603;SDS011;7388;51.078;13.740;2023-05-20T06:16:25;22.20;;;19.67;;
14603;SDS011;7388;51.078;13.740;2023-05-20T06:18:50;25.60;;;21.63;;
14603;SDS011;7388;51.078;13.740;2023-05-20T06:21:19;25.73;;;20.70;;
14603;SDS011;7388;51.078;13.740;2023-05-20T06:23:45;26.60;;;23.40;;
14603;SDS011;7388;51.078;13.740;2023-05-20T06:26:11;29.73;;;22.53;;
14603;SDS011;7388;51.078;13.740;2023-05-20T06:28:37;24.43;;;21.47;;
14603;SDS011;7388;51.078;13.740;2023-05-20T06:31:03;27.75;;;22.35;;
14603;SDS011;7388;51.078;13.740;2023-05-20T06:33:29;24.50;;;21.33;;
14603;SDS011;7388;51.078;13.740;2023-05-20T06:35:55;27.87;;;21.50;;
14603;SDS011;7388;51.078;13.740;2023-05-20T06:38:21;25.20;;;21.10;;
14603;SDS011;7388;51.078;13.740;2023-05-20T06:40:47;24.52;;;21.98;;
14603;SDS011;7388;51.078;13.740;2023-05-20T06:43:14;27.15;;;21.80;;
14603;SDS011;7388;51.078;13.740;2023-05-20T06:45:40;28.90;;;22.90;;
14603;SDS011;7388;51.078;13.740;2023-05-20T06:48:06;34.43;;;22.57;;
14603;SDS011;7388;51.078;13.740;2023-05-20T06:50:32;25.70;;;21.93;;
14603;SDS011;7388;51.078;13.740;2023-05-20T06:52:58;26.25;;;21.92;;
14603;SDS011;7388;51.078;13.740;2023-05-20T06:55:23;24.90;;;21.53;;
14603;SDS011;7388;51.078;13.740;2023-05-20T06:57:50;28.35;;;22.42;;
14603;SDS011;7388;51.078;13.740;2023-05-20T07:00:16;24.77;;;22.00;;
14603;SDS011;7388;51.078;13.740;2023-05-20T07:02:42;29.50;;;22.17;;
14603;SDS011;7388;51.078;13.740;2023-05-20T07:05:08;27.25;;;22.50;;
14603;SDS011;7388;51.078;13.740;2023-05-20T07:07:34;24.40;;;21.67;;
14603;SDS011;7388;51.078;13.740;2023-05-20T07:10:00;26.17;;;22.40;;
14603;SDS011;7388;51.078;13.740;2023-05-20T07:12:26;29.03;;;22.50;;
14603;SDS011;7388;51.078;13.740;2023-05-20T07:14:51;28.00;;;22.50;;
14603;SDS011;7388;51.078;13.740;2023-05-20T07:17:17;26.40;;;23.20;;
14603;SDS011;7388;51.078;13.740;2023-05-20T07:19:43;27.93;;;22.50;;
14603;SDS011;7388;51.078;13.740;2023-05-20T07:22:09;24.70;;;21.80;;
14603;SDS011;7388;51.078;13.740;2023-05-20T07:24:35;23.33;;;20.23;;
14603;SDS011;7388;51.078;13.740;2023-05-20T07:27:01;24.33;;;20.47;;
14603;SDS011;7388;51.078;13.740;2023-05-20T07:29:27;24.37;;;19.93;;
14603;SDS011;7388;51.078;13.740;2023-05-20T07:31:52;27.40;;;21.73;;
14603;SDS011;7388;51.078;13.740;2023-05-20T07:34:18;24.20;;;21.60;;
14603;SDS011;7388;51.078;13.740;2023-05-20T07:36:44;22.10;;;19.73;;
14603;SDS011;7388;51.078;13.740;2023-05-20T07:39:10;25.30;;;19.23;;
14603;SDS011;7388;51.078;13.740;2023-05-20T07:41:36;26.40;;;20.50;;
14603;SDS011;7388;51.078;13.740;2023-05-20T07:44:03;21.13;;;18.83;;
14603;SDS011;7388;51.078;13.740;2023-05-20T07:46:29;28.63;;;22.25;;
14603;SDS011;7388;51.078;13.740;2023-05-20T07:48:55;23.98;;;21.60;;
14603;SDS011;7388;51.078;13.740;2023-05-20T07:51:21;26.90;;;20.20;;
14603;SDS011;7388;51.078;13.740;2023-05-20T07:53:47;27.15;;;22.63;;
14603;SDS011;7388;51.078;13.740;2023-05-20T07:56:13;23.30;;;20.77;;
14603;SDS011;7388;51.078;13.740;2023-05-20T07:58:40;23.55;;;20.75;;
14603;SDS011;7388;51.078;13.740;2023-05-20T08:01:06;22.77;;;18.95;;
14603;SDS011;7388;51.078;13.740;2023-05-20T08:03:33;24.50;;;21.90;;
14603;SDS011;7388;51.078;13.740;2023-05-20T08:06:01;25.07;;;22.23;;
14603;SDS011;7388;51.078;13.740;2023-05-20T08:08:27;25.13;;;21.25;;
14603;SDS011;7388;51.078;13.740;2023-05-20T08:10:54;22.83;;;20.43;;
14603;SDS011;7388;51.078;13.740;2023-05-20T08:13:21;25.30;;;20.63;;
14603;SDS011;7388;51.078;13.740;2023-05-20T08:15:48;24.30;;;20.75;;
14603;SDS011;7388;51.078;13.740;2023-05-20T08:18:14;19.73;;;17.65;;
14603;SDS011;7388;51.078;13.740;2023-05-20T08:20:40;22.43;;;18.10;;
14603;SDS011;7388;51.078;13.740;2023-05-20T08:23:08;24.10;;;20.27;;
14603;SDS011;7388;51.078;13.740;2023-05-20T08:25:33;29.00;;;22.37;;
14603;SDS011;7388;51.078;13.740;2023-05-20T08:28:03;23.97;;;19.53;;
14603;SDS011;7388;51.078;13.740;2023-05-20T08:30:30;22.33;;;18.53;;
14603;SDS011;7388;51.078;13.740;2023-05-20T08:32:57;23.50;;;20.97;;
14603;SDS011;7388;51.078;13.740;2023-05-20T08:35:24;23.00;;;20.13;;
14603;SDS011;7388;51.078;13.740;2023-05-20T08:37:50;19.13;;;17.17;;
14603;SDS011;7388;51.078;13.740;2023-05-20T08:40:18;24.20;;;20.00;;
14603;SDS011;7388;51.078;13.740;2023-05-20T08:42:45;21.80;;;18.90;;
14603;SDS011;7388;51.078;13.740;2023-05-20T08:45:14;23.20;;;20.80;;
14603;SDS011;7388;51.078;13.740;2023-05-20T08:47:42;23.33;;;20.83;;
14603;SDS011;7388;51.078;13.740;2023-05-20T08:50:12;23.73;;;18.17;;
14603;SDS011;7388;51.078;13.740;2023-05-20T08:52:41;22.30;;;18.63;;
14603;SDS011;7388;51.078;13.740;2023-05-20T08:55:14;23.33;;;18.27;;
14603;SDS011;7388;51.078;13.740;2023-05-20T08:57:47;19.50;;;17.40;;
14603;SDS011;7388;51.078;13.740;2023-05-20T09:00:19;21.20;;;17.80;;
14603;SDS011;7388;51.078;13.740;2023-05-20T09:02:47;19.13;;;17.23;;
14603;SDS011;7388;51.078;13.740;2023-05-20T09:05:13;19.93;;;17.73;;
14603;SDS011;7388;51.078;13.740;2023-05-20T09:07:39;23.60;;;18.33;;
14603;SDS011;7388;51.078;13.740;2023-05-20T09:10:07;22.10;;;19.70;;
14603;SDS011;7388;51.078;13.740;2023-05-20T09:12:33;20.60;;;18.50;;
14603;SDS011;7388;51.078;13.740;2023-05-20T09:15:00;22.07;;;19.10;;
14603;SDS011;7388;51.078;13.740;2023-05-20T09:17:26;21.70;;;19.37;;
14603;SDS011;7388;51.078;13.740;2023-05-20T09:19:52;21.00;;;18.70;;
14603;SDS011;7388;51.078;13.740;2023-05-20T09:22:25;19.40;;;17.20;;
14603;SDS011;7388;51.078;13.740;2023-05-20T09:24:52;19.50;;;17.40;;
14603;SDS011;7388;51.078;13.740;2023-05-20T09:27:18;19.77;;;17.67;;
14603;SDS011;7388;51.078;13.740;2023-05-20T09:29:48;20.57;;;18.33;;
14603;SDS011;7388;51.078;13.740;2023-05-20T09:32:14;20.43;;;18.30;;
14603;SDS011;7388;51.078;13.740;2023-05-20T09:34:40;22.10;;;16.87;;
14603;SDS011;7388;51.078;13.740;2023-05-20T09:37:07;22.17;;;17.40;;
14603;SDS011;7388;51.078;13.740;2023-05-20T09:39:36;19.40;;;17.33;;
14603;SDS011;7388;51.078;13.740;2023-05-20T09:42:46;24.17;;;18.43;;
14603;SDS011;7388;51.078;13.740;2023-05-20T09:45:25;24.23;;;18.20;;
14603;SDS011;7388;51.078;13.740;2023-05-20T09:47:51;21.03;;;17.20;;
14603;SDS011;7388;51.078;13.740;2023-05-20T09:50:19;19.80;;;17.80;;
14603;SDS011;7388;51.078;13.740;2023-05-20T09:52:46;21.57;;;18.40;;
14603;SDS011;7388;51.078;13.740;2023-05-20T09:55:13;20.73;;;18.30;;
14603;SDS011;7388;51.078;13.740;2023-05-20T09:57:39;20.30;;;18.17;;
14603;SDS011;7388;51.078;13.740;2023-05-20T10:00:06;22.50;;;18.70;;
14603;SDS011;7388;51.078;13.740;2023-05-20T10:02:37;19.90;;;17.33;;
14603;SDS011;7388;51.078;13.740;2023-05-20T10:05:10;22.80;;;15.80;;
14603;SDS011;7388;51.078;13.740;2023-05-20T10:21:23;18.90;;;14.20;;
14603;SDS011;7388;51.078;13.740;2023-05-20T10:23:50;18.50;;;16.37;;
14603;SDS011;7388;51.078;13.740;2023-05-20T10:26:16;18.77;;;16.77;;
14603;SDS011;7388;51.078;13.740;2023-05-20T10:28:43;19.33;;;16.83;;
14603;SDS011;7388;51.078;13.740;2023-05-20T10:31:17;18.50;;;16.03;;
14603;SDS011;7388;51.078;13.740;2023-05-20T10:33:46;17.83;;;15.40;;
14603;SDS011;7388;51.078;13.740;2023-05-20T10:36:22;19.27;;;16.97;;
14603;SDS011;7388;51.078;13.740;2023-05-20T10:38:56;19.33;;;17.20;;
14603;SDS011;7388;51.078;13.740;2023-05-20T10:41:23;19.03;;;16.90;;
14603;SDS011;7388;51.078;13.740;2023-05-20T10:44:03;18.30;;;16.30;;
14603;SDS011;7388;51.078;13.740;2023-05-20T10:46:31;18.60;;;16.70;;
14603;SDS011;7388;51.078;13.740;2023-05-20T10:48:58;17.10;;;15.30;;
14603;SDS011;7388;51.078;13.740;2023-05-20T10:51:25;17.33;;;15.43;;
14603;SDS011;7388;51.078;13.740;2023-05-20T10:53:54;15.93;;;14.33;;
14603;SDS011;7388;51.078;13.740;2023-05-20T10:56:21;20.13;;;16.27;;
14603;SDS011;7388;51.078;13.740;2023-05-20T10:58:51;22.60;;;18.47;;
14603;SDS011;7388;51.078;13.740;2023-05-20T11:01:23;18.63;;;15.60;;
14603;SDS011;7388;51.078;13.740;2023-05-20T11:03:50;19.47;;;15.90;;
14603;SDS011;7388;51.078;13.740;2023-05-20T11:06:18;19.37;;;15.87;;
14603;SDS011;7388;51.078;13.740;2023-05-20T11:08:44;18.80;;;16.17;;
14603;SDS011;7388;51.078;13.740;2023-05-20T11:11:10;17.30;;;15.43;;
14603;SDS011;7388;51.078;13.740;2023-05-20T11:13:37;20.63;;;16.93;;
14603;SDS011;7388;51.078;13.740;2023-05-20T11:16:03;17.13;;;15.30;;
14603;SDS011;7388;51.078;13.740;2023-05-20T11:18:29;15.47;;;13.97;;
14603;SDS011;7388;51.078;13.740;2023-05-20T11:20:56;16.00;;;14.40;;
14603;SDS011;7388;51.078;13.740;2023-05-20T11:23:22;17.60;;;14.80;;
14603;SDS011;7388;51.078;13.740;2023-05-20T11:25:51;21.10;;;14.53;;
14603;SDS011;7388;51.078;13.740;2023-05-20T11:28:18;20.00;;;14.93;;
14603;SDS011;7388;51.078;13.740;2023-05-20T11:30:45;19.33;;;15.53;;
14603;SDS011;7388;51.078;13.740;2023-05-20T11:33:12;15.60;;;14.00;;
14603;SDS011;7388;51.078;13.740;2023-05-20T11:35:50;15.67;;;14.17;;
14603;SDS011;7388;51.078;13.740;2023-05-20T11:38:17;15.50;;;13.90;;
14603;SDS011;7388;51.078;13.740;2023-05-20T11:40:44;14.93;;;13.40;;
14603;SDS011;7388;51.078;13.740;2023-05-20T11:43:12;15.60;;;14.10;;
14603;SDS011;7388;51.078;13.740;2023-05-20T11:45:39;15.17;;;13.57;;
14603;SDS011;7388;51.078;13.740;2023-05-20T11:48:06;14.90;;;13.47;;
14603;SDS011;7388;51.078;13.740;2023-05-20T11:50:36;16.63;;;14.90;;
14603;SDS011;7388;51.078;13.740;2023-05-20T11:53:05;16.63;;;13.90;;
14603;SDS011;7388;51.078;13.740;2023-05-20T11:55:32;21.03;;;14.20;;
14603;SDS011;7388;51.078;13.740;2023-05-20T11:57:59;14.33;;;12.83;;
14603;SDS011;7388;51.078;13.740;2023-05-20T12:00:26;14.63;;;13.03;;
14603;SDS011;7388;51.078;13.740;2023-05-20T12:02:51;15.50;;;13.90;;
14603;SDS011;7388;51.078;13.740;2023-05-20T12:05:17;15.67;;;13.87;;
14603;SDS011;7388;51.078;13.740;2023-05-20T12:07:43;20.30;;;14.23;;
14603;SDS011;7388;51.078;13.740;2023-05-20T12:10:09;15.47;;;13.97;;
14603;SDS011;7388;51.078;13.740;2023-05-20T12:12:35;14.83;;;13.43;;
14603;SDS011;7388;51.078;13.740;2023-05-20T12:15:04;15.90;;;14.20;;
14603;SDS011;7388;51.078;13.740;2023-05-20T12:17:33;14.77;;;13.20;;
14603;SDS011;7388;51.078;13.740;2023-05-20T12:20:09;16.13;;;13.20;;
14603;SDS011;7388;51.078;13.740;2023-05-20T12:22:35;14.83;;;13.40;;
14603;SDS011;7388;51.078;13.740;2023-05-20T12:25:01;15.83;;;14.20;;
14603;SDS011;7388;51.078;13.740;2023-05-20T12:27:26;15.40;;;13.90;;
14603;SDS011;7388;51.078;13.740;2023-05-20T12:29:52;15.30;;;13.80;;
14603;SDS011;7388;51.078;13.740;2023-05-20T12:32:18;17.53;;;13.90;;
14603;SDS011;7388;51.078;13.740;2023-05-20T12:34:45;15.70;;;14.10;;
14603;SDS011;7388;51.078;13.740;2023-05-20T12:37:10;13.53;;;12.20;;
14603;SDS011;7388;51.078;13.740;2023-05-20T12:39:36;14.30;;;12.90;;
14603;SDS011;7388;51.078;13.740;2023-05-20T12:42:02;14.33;;;12.93;;
14603;SDS011;7388;51.078;13.740;2023-05-20T12:44:28;16.57;;;14.33;;
14603;SDS011;7388;51.078;13.740;2023-05-20T12:46:54;22.00;;;13.40;;
14603;SDS011;7388;51.078;13.740;2023-05-20T12:49:20;15.30;;;13.40;;
14603;SDS011;7388;51.078;13.740;2023-05-20T12:51:46;14.47;;;13.17;;
14603;SDS011;7388;51.078;13.740;2023-05-20T12:54:11;16.23;;;14.60;;
14603;SDS011;7388;51.078;13.740;2023-05-20T12:56:37;15.20;;;13.80;;
14603;SDS011;7388;51.078;13.740;2023-05-20T12:59:04;16.47;;;13.53;;
14603;SDS011;7388;51.078;13.740;2023-05-20T13:01:30;14.97;;;13.50;;
14603;SDS011;7388;51.078;13.740;2023-05-20T13:03:56;14.93;;;13.43;;
14603;SDS011;7388;51.078;13.740;2023-05-20T13:06:22;15.00;;;13.60;;
14603;SDS011;7388;51.078;13.740;2023-05-20T13:08:48;17.50;;;15.23;;
14603;SDS011;7388;51.078;13.740;2023-05-20T13:11:14;15.30;;;13.70;;
14603;SDS011;7388;51.078;13.740;2023-05-20T13:13:40;16.27;;;14.57;;
14603;SDS011;7388;51.078;13.740;2023-05-20T13:16:06;15.30;;;13.90;;
14603;SDS011;7388;51.078;13.740;2023-05-20T13:18:31;17.10;;;15.30;;
14603;SDS011;7388;51.078;13.740;2023-05-20T13:20:57;17.40;;;15.10;;
14603;SDS011;7388;51.078;13.740;2023-05-20T13:23:23;17.80;;;13.87;;
14603;SDS011;7388;51.078;13.740;2023-05-20T13:25:48;26.80;;;15.80;;
14603;SDS011;7388;51.078;13.740;2023-05-20T13:28:14;16.47;;;14.77;;
14603;SDS011;7388;51.078;13.740;2023-05-20T13:30:42;15.03;;;13.40;;
14603;SDS011;7388;51.078;13.740;2023-05-20T13:33:08;19.40;;;14.77;;
14603;SDS011;7388;51.078;13.740;2023-05-20T13:35:34;14.50;;;13.10;;
14603;SDS011;7388;51.078;13.740;2023-05-20T13:38:00;16.80;;;15.07;;
14603;SDS011;7388;51.078;13.740;2023-05-20T13:40:26;16.87;;;15.23;;
14603;SDS011;7388;51.078;13.740;2023-05-20T13:42:52;17.37;;;14.13;;
14603;SDS011;7388;51.078;13.740;2023-05-20T13:45:18;15.27;;;13.80;;
14603;SDS011;7388;51.078;13.740;2023-05-20T13:47:44;17.67;;;13.40;;
14603;SDS011;7388;51.078;13.740;2023-05-20T13:50:10;14.47;;;13.07;;
14603;SDS011;7388;51.078;13.740;2023-05-20T13:52:36;16.43;;;12.80;;
14603;SDS011;7388;51.078;13.740;2023-05-20T13:55:01;13.90;;;12.70;;
14603;SDS011;7388;51.078;13.740;2023-05-20T13:57:27;14.60;;;13.10;;
14603;SDS011;7388;51.078;13.740;2023-05-20T13:59:53;15.57;;;13.60;;
14603;SDS011;7388;51.078;13.740;2023-05-20T14:02:19;17.77;;;13.80;;
14603;SDS011;7388;51.078;13.740;2023-05-20T14:04:44;16.57;;;13.47;;
14603;SDS011;7388;51.078;13.740;2023-05-20T14:07:11;15.73;;;14.13;;
14603;SDS011;7388;51.078;13.740;2023-05-20T14:09:37;16.73;;;14.77;;
14603;SDS011;7388;51.078;13.740;2023-05-20T14:12:03;15.83;;;13.73;;
14603;SDS011;7388;51.078;13.740;2023-05-20T14:14:30;17.57;;;14.40;;
14603;SDS011;7388;51.078;13.740;2023-05-20T14:16:56;16.33;;;14.80;;
14603;SDS011;7388;51.078;13.740;2023-05-20T14:19:21;20.77;;;15.00;;
14603;SDS011;7388;51.078;13.740;2023-05-20T14:21:47;16.50;;;14.90;;
14603;SDS011;7388;51.078;13.740;2023-05-20T14:24:13;15.97;;;14.17;;
14603;SDS011;7388;51.078;13.740;2023-05-20T14:26:39;16.00;;;14.50;;
14603;SDS011;7388;51.078;13.740;2023-05-20T14:29:04;17.77;;;15.87;;
14603;SDS011;7388;51.078;13.740;2023-05-20T14:31:30;18.87;;;15.67;;